AWE725 KCMH-KDCA
Flight info
| Callsign | AWE725 |
|---|---|
| Flight time | 0h 48m |
| Altitude | 35000 |
| Route | OWEBO AIR BUCKO FRDMM6 |
| Aircraft | A320/M-SDE3FGHIRWY/LB1 |
Departure
| Time | 2026-04-23 00:01 |
|---|---|
| Airport | John Glenn Columbus International Airport (KCMH) |
Arrival
| Time | 2026-04-23 00:50 |
|---|---|
| Airport | Ronald Reagan Washington National Airport (KDCA) |
| Time | Latitude | Longitude | Altitude | Speed | Heading |
|---|---|---|---|---|---|
| 2026-04-22 23:28 | 39.99741 | -82.88155 | 825 ft | 0 kts | 7° |
| 2026-04-22 23:52 | 39.99736 | -82.88156 | 825 ft | 3 kts | 8° |
| 2026-04-22 23:52 | 39.99710 | -82.88161 | 827 ft | 4 kts | 10° |
| 2026-04-22 23:52 | 39.99683 | -82.88168 | 825 ft | 4 kts | 12° |
| 2026-04-22 23:52 | 39.99657 | -82.88175 | 825 ft | 4 kts | 9° |
| 2026-04-22 23:53 | 39.99647 | -82.88177 | 825 ft | 0 kts | 7° |
| 2026-04-22 23:57 | 39.99652 | -82.88171 | 831 ft | 1 kts | 57° |
| 2026-04-22 23:57 | 39.99648 | -82.88165 | 830 ft | 1 kts | 122° |
| 2026-04-22 23:57 | 39.99636 | -82.88157 | 832 ft | 5 kts | 147° |
| 2026-04-22 23:57 | 39.99607 | -82.88103 | 823 ft | 10 kts | 91° |
| 2026-04-22 23:58 | 39.99602 | -82.87993 | 825 ft | 14 kts | 95° |
| 2026-04-22 23:58 | 39.99593 | -82.87858 | 825 ft | 16 kts | 94° |
| 2026-04-22 23:58 | 39.99569 | -82.87701 | 823 ft | 19 kts | 100° |
| 2026-04-22 23:58 | 39.99563 | -82.87529 | 825 ft | 19 kts | 93° |
| 2026-04-22 23:59 | 39.99554 | -82.87386 | 825 ft | 14 kts | 96° |
| 2026-04-22 23:59 | 39.99517 | -82.87292 | 825 ft | 11 kts | 162° |
| 2026-04-22 23:59 | 39.99431 | -82.87297 | 825 ft | 14 kts | 185° |
| 2026-04-22 23:59 | 39.99327 | -82.87314 | 825 ft | 16 kts | 188° |
| 2026-04-23 00:00 | 39.99166 | -82.87368 | 822 ft | 9 kts | 265° |
| 2026-04-23 00:00 | 39.99172 | -82.87503 | 824 ft | 35 kts | 274° |
| 2026-04-23 00:00 | 39.99206 | -82.88157 | 825 ft | 106 kts | 274° |
| 2026-04-23 00:01 | 39.99269 | -82.89361 | 824 ft | 158 kts | 273° |
| 2026-04-23 00:01 | 39.99344 | -82.90899 | 1200 ft | 171 kts | 270° |
| 2026-04-23 00:01 | 39.99395 | -82.92436 | 1898 ft | 168 kts | 270° |
| 2026-04-23 00:01 | 39.99407 | -82.93985 | 2598 ft | 174 kts | 270° |
| 2026-04-23 00:02 | 39.99427 | -82.95639 | 3072 ft | 191 kts | 273° |
| 2026-04-23 00:02 | 39.99905 | -82.97375 | 3324 ft | 225 kts | 309° |
| 2026-04-23 00:02 | 40.01347 | -82.98409 | 3795 ft | 257 kts | 347° |
| 2026-04-23 00:02 | 40.03177 | -82.98059 | 4556 ft | 280 kts | 23° |
| 2026-04-23 00:03 | 40.04624 | -82.96360 | 5492 ft | 293 kts | 56° |
| 2026-04-23 00:03 | 40.05203 | -82.93798 | 6451 ft | 301 kts | 88° |
| 2026-04-23 00:03 | 40.05050 | -82.91097 | 7515 ft | 297 kts | 98° |
| 2026-04-23 00:03 | 40.04754 | -82.88437 | 8492 ft | 298 kts | 97° |
| 2026-04-23 00:04 | 40.04500 | -82.85732 | 9382 ft | 303 kts | 95° |
| 2026-04-23 00:04 | 40.04313 | -82.82976 | 10207 ft | 308 kts | 92° |
| 2026-04-23 00:04 | 40.04249 | -82.80102 | 10645 ft | 326 kts | 88° |
| 2026-04-23 00:04 | 40.04300 | -82.77069 | 11062 ft | 342 kts | 85° |
| 2026-04-23 00:05 | 40.04454 | -82.73907 | 11570 ft | 353 kts | 84° |
| 2026-04-23 00:05 | 40.04647 | -82.70719 | 12453 ft | 353 kts | 83° |
| 2026-04-23 00:05 | 40.04809 | -82.67514 | 13245 ft | 356 kts | 85° |
| 2026-04-23 00:05 | 40.04923 | -82.64266 | 13983 ft | 360 kts | 86° |
| 2026-04-23 00:06 | 40.05015 | -82.60990 | 14641 ft | 363 kts | 86° |
| 2026-04-23 00:06 | 40.05105 | -82.57681 | 15297 ft | 367 kts | 85° |
| 2026-04-23 00:06 | 40.05201 | -82.54323 | 15952 ft | 370 kts | 85° |
| 2026-04-23 00:06 | 40.05303 | -82.50986 | 16589 ft | 374 kts | 85° |
| 2026-04-23 00:07 | 40.05415 | -82.47565 | 17267 ft | 377 kts | 85° |
| 2026-04-23 00:07 | 40.05530 | -82.44111 | 17917 ft | 381 kts | 85° |
| 2026-04-23 00:07 | 40.05645 | -82.40640 | 18540 ft | 385 kts | 84° |
| 2026-04-23 00:07 | 40.05762 | -82.37132 | 19125 ft | 388 kts | 84° |
| 2026-04-23 00:08 | 40.05879 | -82.33613 | 19697 ft | 392 kts | 84° |
| 2026-04-23 00:08 | 40.05995 | -82.30019 | 20284 ft | 396 kts | 84° |
| 2026-04-23 00:08 | 40.06110 | -82.26411 | 20856 ft | 400 kts | 84° |
| 2026-04-23 00:08 | 40.06228 | -82.22764 | 21406 ft | 404 kts | 84° |
| 2026-04-23 00:09 | 40.06344 | -82.19085 | 21942 ft | 408 kts | 84° |
| 2026-04-23 00:09 | 40.06456 | -82.15365 | 22485 ft | 412 kts | 84° |
| 2026-04-23 00:09 | 40.06570 | -82.11613 | 23036 ft | 416 kts | 84° |
| 2026-04-23 00:09 | 40.06686 | -82.07822 | 23582 ft | 420 kts | 84° |
| 2026-04-23 00:10 | 40.06802 | -82.03999 | 24039 ft | 424 kts | 84° |
| 2026-04-23 00:10 | 40.06917 | -82.00142 | 24506 ft | 427 kts | 84° |
| 2026-04-23 00:10 | 40.07033 | -81.96261 | 24968 ft | 429 kts | 84° |
| 2026-04-23 00:10 | 40.07147 | -81.92408 | 25412 ft | 432 kts | 84° |
| 2026-04-23 00:11 | 40.07259 | -81.88471 | 25856 ft | 435 kts | 84° |
| 2026-04-23 00:11 | 40.07367 | -81.84509 | 26297 ft | 438 kts | 84° |
| 2026-04-23 00:11 | 40.07474 | -81.80510 | 26736 ft | 440 kts | 84° |
| 2026-04-23 00:11 | 40.07581 | -81.76496 | 27159 ft | 443 kts | 83° |
| 2026-04-23 00:12 | 40.07690 | -81.72458 | 27557 ft | 446 kts | 84° |
| 2026-04-23 00:12 | 40.07579 | -81.68431 | 27956 ft | 452 kts | 90° |
| 2026-04-23 00:12 | 40.07313 | -81.64300 | 28374 ft | 455 kts | 90° |
| 2026-04-23 00:12 | 40.07046 | -81.60163 | 28754 ft | 458 kts | 90° |
| 2026-04-23 00:13 | 40.06775 | -81.55995 | 29133 ft | 461 kts | 90° |
| 2026-04-23 00:13 | 40.06501 | -81.51808 | 29531 ft | 464 kts | 90° |
| 2026-04-23 00:13 | 40.06230 | -81.47641 | 29922 ft | 467 kts | 90° |
| 2026-04-23 00:13 | 40.05954 | -81.43405 | 30277 ft | 470 kts | 90° |
| 2026-04-23 00:14 | 40.05672 | -81.39140 | 30613 ft | 472 kts | 90° |
| 2026-04-23 00:14 | 40.05383 | -81.34851 | 30935 ft | 474 kts | 90° |
| 2026-04-23 00:14 | 40.05092 | -81.30560 | 31030 ft | 474 kts | 90° |
| 2026-04-23 00:15 | 40.04514 | -81.22031 | 31046 ft | 473 kts | 90° |
| 2026-04-23 00:15 | 40.03929 | -81.13454 | 31048 ft | 474 kts | 90° |
| 2026-04-23 00:16 | 40.03338 | -81.04936 | 31047 ft | 473 kts | 90° |
| 2026-04-23 00:16 | 40.02742 | -80.96350 | 31048 ft | 473 kts | 90° |
| 2026-04-23 00:17 | 40.02004 | -80.87838 | 31049 ft | 478 kts | 97° |
| 2026-04-23 00:17 | 40.00117 | -80.80934 | 31046 ft | 488 kts | 115° |
| 2026-04-23 00:18 | 39.96056 | -80.73851 | 31048 ft | 495 kts | 131° |
| 2026-04-23 00:18 | 39.91327 | -80.67301 | 31049 ft | 495 kts | 131° |
| 2026-04-23 00:19 | 39.86614 | -80.60770 | 31037 ft | 495 kts | 131° |
| 2026-04-23 00:19 | 39.81880 | -80.54209 | 31416 ft | 498 kts | 131° |
| 2026-04-23 00:19 | 39.79500 | -80.50919 | 31771 ft | 500 kts | 131° |
| 2026-04-23 00:20 | 39.77116 | -80.47629 | 32223 ft | 499 kts | 131° |
| 2026-04-23 00:20 | 39.74735 | -80.44353 | 32700 ft | 498 kts | 131° |
| 2026-04-23 00:20 | 39.72361 | -80.41086 | 33157 ft | 497 kts | 131° |
| 2026-04-23 00:20 | 39.69995 | -80.37828 | 33631 ft | 495 kts | 130° |
| 2026-04-23 00:21 | 39.66867 | -80.33523 | 34227 ft | 494 kts | 130° |
| 2026-04-23 00:21 | 39.65272 | -80.31332 | 34506 ft | 494 kts | 130° |
| 2026-04-23 00:21 | 39.62914 | -80.28099 | 34882 ft | 493 kts | 130° |
| 2026-04-23 00:21 | 39.60555 | -80.24870 | 35022 ft | 493 kts | 130° |
| 2026-04-23 00:22 | 39.58195 | -80.21651 | 35063 ft | 492 kts | 131° |
| 2026-04-23 00:22 | 39.53488 | -80.15232 | 35083 ft | 491 kts | 131° |
| 2026-04-23 00:23 | 39.48790 | -80.08814 | 35067 ft | 491 kts | 130° |
| 2026-04-23 00:23 | 39.44103 | -80.02460 | 35070 ft | 491 kts | 131° |
| 2026-04-23 00:24 | 39.39378 | -79.96082 | 35072 ft | 491 kts | 131° |
| 2026-04-23 00:24 | 39.34667 | -79.89692 | 35078 ft | 490 kts | 130° |
| 2026-04-23 00:25 | 39.30815 | -79.82590 | 35093 ft | 479 kts | 111° |
| 2026-04-23 00:25 | 39.29560 | -79.78601 | 34959 ft | 481 kts | 102° |
| 2026-04-23 00:25 | 39.28772 | -79.74410 | 34535 ft | 478 kts | 93° |
| 2026-04-23 00:25 | 39.28405 | -79.70181 | 34067 ft | 473 kts | 90° |
| 2026-04-23 00:26 | 39.28078 | -79.65960 | 33521 ft | 470 kts | 90° |
| 2026-04-23 00:26 | 39.27746 | -79.61772 | 32969 ft | 468 kts | 90° |
| 2026-04-23 00:26 | 39.27412 | -79.57580 | 32324 ft | 472 kts | 90° |
| 2026-04-23 00:26 | 39.27074 | -79.53369 | 31857 ft | 474 kts | 90° |
| 2026-04-23 00:27 | 39.26731 | -79.49143 | 31225 ft | 472 kts | 90° |
| 2026-04-23 00:27 | 39.26388 | -79.44940 | 30618 ft | 469 kts | 90° |
| 2026-04-23 00:27 | 39.26046 | -79.40767 | 30008 ft | 467 kts | 90° |
| 2026-04-23 00:27 | 39.25706 | -79.36614 | 29313 ft | 464 kts | 90° |
| 2026-04-23 00:28 | 39.25367 | -79.32484 | 28626 ft | 462 kts | 91° |
| 2026-04-23 00:28 | 39.25028 | -79.28372 | 27960 ft | 459 kts | 91° |
| 2026-04-23 00:28 | 39.24689 | -79.24304 | 27555 ft | 451 kts | 91° |
| 2026-04-23 00:28 | 39.24352 | -79.20309 | 27297 ft | 446 kts | 91° |
| 2026-04-23 00:29 | 39.24016 | -79.16341 | 27044 ft | 444 kts | 91° |
| 2026-04-23 00:29 | 39.23681 | -79.12388 | 26647 ft | 441 kts | 91° |
| 2026-04-23 00:29 | 39.23347 | -79.08471 | 26150 ft | 438 kts | 92° |
| 2026-04-23 00:29 | 39.23012 | -79.04590 | 25678 ft | 434 kts | 92° |
| 2026-04-23 00:30 | 39.22676 | -79.00734 | 25179 ft | 431 kts | 92° |
| 2026-04-23 00:30 | 39.22345 | -78.96910 | 24700 ft | 427 kts | 92° |
| 2026-04-23 00:30 | 39.22010 | -78.93115 | 24231 ft | 425 kts | 93° |
| 2026-04-23 00:30 | 39.21657 | -78.89344 | 23754 ft | 422 kts | 93° |
| 2026-04-23 00:31 | 39.21289 | -78.85603 | 23251 ft | 418 kts | 94° |
| 2026-04-23 00:31 | 39.20916 | -78.81906 | 22768 ft | 415 kts | 94° |
| 2026-04-23 00:31 | 39.20545 | -78.78224 | 22293 ft | 413 kts | 94° |
| 2026-04-23 00:31 | 39.20182 | -78.74567 | 21839 ft | 409 kts | 94° |
| 2026-04-23 00:32 | 39.19826 | -78.70945 | 21380 ft | 406 kts | 94° |
| 2026-04-23 00:32 | 39.19476 | -78.67350 | 20939 ft | 402 kts | 93° |
| 2026-04-23 00:32 | 39.19136 | -78.63833 | 20482 ft | 399 kts | 93° |
| 2026-04-23 00:32 | 39.18792 | -78.60294 | 20033 ft | 397 kts | 94° |
| 2026-04-23 00:33 | 39.18443 | -78.56768 | 19595 ft | 394 kts | 94° |
| 2026-04-23 00:33 | 39.18094 | -78.53276 | 19158 ft | 392 kts | 94° |
| 2026-04-23 00:33 | 39.17747 | -78.49803 | 18714 ft | 390 kts | 94° |
| 2026-04-23 00:33 | 39.17404 | -78.46348 | 18268 ft | 388 kts | 94° |
| 2026-04-23 00:34 | 39.17061 | -78.42916 | 17818 ft | 385 kts | 94° |
| 2026-04-23 00:34 | 39.16720 | -78.39500 | 17386 ft | 383 kts | 94° |
| 2026-04-23 00:34 | 39.16280 | -78.36126 | 16958 ft | 383 kts | 101° |
| 2026-04-23 00:34 | 39.15553 | -78.33099 | 16649 ft | 382 kts | 105° |
| 2026-04-23 00:35 | 39.14719 | -78.29752 | 16282 ft | 380 kts | 105° |
| 2026-04-23 00:35 | 39.13918 | -78.26517 | 15921 ft | 378 kts | 104° |
| 2026-04-23 00:35 | 39.13126 | -78.23302 | 15568 ft | 376 kts | 104° |
| 2026-04-23 00:35 | 39.12334 | -78.20108 | 15240 ft | 373 kts | 105° |
| 2026-04-23 00:36 | 39.11541 | -78.16931 | 14879 ft | 371 kts | 105° |
| 2026-04-23 00:36 | 39.10749 | -78.13772 | 14534 ft | 370 kts | 105° |
| 2026-04-23 00:36 | 39.09963 | -78.10629 | 14191 ft | 368 kts | 105° |
| 2026-04-23 00:36 | 39.09173 | -78.07509 | 13850 ft | 366 kts | 105° |
| 2026-04-23 00:37 | 39.08384 | -78.04410 | 13493 ft | 364 kts | 105° |
| 2026-04-23 00:37 | 39.07594 | -78.01327 | 13149 ft | 362 kts | 105° |
| 2026-04-23 00:37 | 39.06808 | -77.98268 | 12815 ft | 359 kts | 105° |
| 2026-04-23 00:37 | 39.06026 | -77.95221 | 12491 ft | 357 kts | 105° |
| 2026-04-23 00:38 | 39.05261 | -77.92270 | 12289 ft | 347 kts | 105° |
| 2026-04-23 00:38 | 39.04499 | -77.89342 | 12155 ft | 335 kts | 105° |
| 2026-04-23 00:38 | 39.03775 | -77.86545 | 11963 ft | 326 kts | 105° |
| 2026-04-23 00:38 | 39.03082 | -77.83839 | 11725 ft | 320 kts | 105° |
| 2026-04-23 00:39 | 39.02393 | -77.81142 | 11570 ft | 317 kts | 105° |
| 2026-04-23 00:39 | 39.01697 | -77.78417 | 11308 ft | 316 kts | 105° |
| 2026-04-23 00:39 | 39.01012 | -77.75748 | 11060 ft | 314 kts | 105° |
| 2026-04-23 00:39 | 39.00328 | -77.73087 | 10794 ft | 313 kts | 105° |
| 2026-04-23 00:40 | 38.99644 | -77.70444 | 10533 ft | 311 kts | 105° |
| 2026-04-23 00:40 | 38.98961 | -77.67811 | 10271 ft | 310 kts | 105° |
| 2026-04-23 00:40 | 38.98280 | -77.65192 | 10057 ft | 309 kts | 106° |
| 2026-04-23 00:40 | 38.97555 | -77.62571 | 9615 ft | 313 kts | 108° |
| 2026-04-23 00:41 | 38.96794 | -77.59989 | 9452 ft | 304 kts | 109° |
| 2026-04-23 00:41 | 38.96046 | -77.57503 | 9157 ft | 300 kts | 109° |
| 2026-04-23 00:41 | 38.95303 | -77.54995 | 8809 ft | 299 kts | 105° |
| 2026-04-23 00:41 | 38.94925 | -77.52403 | 8471 ft | 293 kts | 89° |
| 2026-04-23 00:42 | 38.95079 | -77.49828 | 8156 ft | 286 kts | 73° |
| 2026-04-23 00:42 | 38.95715 | -77.47449 | 7624 ft | 280 kts | 63° |
| 2026-04-23 00:42 | 38.96483 | -77.45149 | 7081 ft | 280 kts | 63° |
| 2026-04-23 00:42 | 38.97253 | -77.42855 | 6587 ft | 278 kts | 63° |
| 2026-04-23 00:43 | 38.98013 | -77.40589 | 6173 ft | 273 kts | 64° |
| 2026-04-23 00:43 | 38.98761 | -77.38355 | 5805 ft | 270 kts | 63° |
| 2026-04-23 00:43 | 38.99480 | -77.36198 | 5638 ft | 254 kts | 64° |
| 2026-04-23 00:43 | 39.00151 | -77.34171 | 5378 ft | 241 kts | 63° |
| 2026-04-23 00:44 | 39.00805 | -77.32204 | 4936 ft | 238 kts | 63° |
| 2026-04-23 00:44 | 39.01458 | -77.30258 | 4473 ft | 237 kts | 63° |
| 2026-04-23 00:44 | 39.02104 | -77.28332 | 4150 ft | 229 kts | 63° |
| 2026-04-23 00:44 | 39.02565 | -77.26442 | 4032 ft | 216 kts | 79° |
| 2026-04-23 00:45 | 39.02561 | -77.24537 | 3782 ft | 213 kts | 98° |
| 2026-04-23 00:45 | 39.02106 | -77.22730 | 3511 ft | 215 kts | 117° |
| 2026-04-23 00:45 | 39.01240 | -77.21174 | 3234 ft | 213 kts | 137° |
| 2026-04-23 00:45 | 39.00174 | -77.19892 | 3080 ft | 207 kts | 139° |
| 2026-04-23 00:46 | 38.99129 | -77.18630 | 2972 ft | 204 kts | 139° |
| 2026-04-23 00:46 | 38.98136 | -77.17402 | 2942 ft | 195 kts | 137° |
| 2026-04-23 00:46 | 38.97195 | -77.16165 | 2747 ft | 193 kts | 134° |
| 2026-04-23 00:46 | 38.96290 | -77.14896 | 2525 ft | 190 kts | 136° |
| 2026-04-23 00:47 | 38.95338 | -77.13741 | 2358 ft | 188 kts | 143° |
| 2026-04-23 00:47 | 38.94359 | -77.12698 | 2197 ft | 181 kts | 144° |
| 2026-04-23 00:47 | 38.93389 | -77.11662 | 1954 ft | 179 kts | 145° |
| 2026-04-23 00:47 | 38.92387 | -77.10786 | 1801 ft | 170 kts | 149° |
| 2026-04-23 00:48 | 38.91473 | -77.09925 | 1591 ft | 157 kts | 143° |
| 2026-04-23 00:48 | 38.90768 | -77.08942 | 1437 ft | 147 kts | 127° |
| 2026-04-23 00:48 | 38.90332 | -77.07764 | 1250 ft | 148 kts | 114° |
| 2026-04-23 00:48 | 38.89833 | -77.06635 | 1052 ft | 145 kts | 133° |
| 2026-04-23 00:49 | 38.89103 | -77.05783 | 884 ft | 140 kts | 143° |
| 2026-04-23 00:49 | 38.88351 | -77.04948 | 630 ft | 143 kts | 140° |
| 2026-04-23 00:49 | 38.87580 | -77.04163 | 407 ft | 139 kts | 155° |
| 2026-04-23 00:49 | 38.86664 | -77.03917 | 208 ft | 134 kts | 178° |
| 2026-04-23 00:50 | 38.85760 | -77.03836 | 27 ft | 121 kts | 176° |
| 2026-04-23 00:50 | 38.85194 | -77.03778 | 25 ft | 38 kts | 175° |
| 2026-04-23 00:50 | 38.84949 | -77.03762 | 23 ft | 26 kts | 179° |
| 2026-04-23 00:50 | 38.84882 | -77.03860 | 24 ft | 16 kts | 289° |
| 2026-04-23 00:51 | 38.84982 | -77.03900 | 24 ft | 12 kts | 356° |
| 2026-04-23 00:51 | 38.85068 | -77.03909 | 24 ft | 10 kts | 355° |
| 2026-04-23 00:51 | 38.85130 | -77.03920 | 24 ft | 10 kts | 336° |
| 2026-04-23 00:51 | 38.85192 | -77.03981 | 24 ft | 13 kts | 352° |
| 2026-04-23 00:52 | 38.85287 | -77.03991 | 24 ft | 15 kts | 355° |
| 2026-04-23 00:52 | 38.85392 | -77.04001 | 24 ft | 16 kts | 355° |
| 2026-04-23 00:52 | 38.85493 | -77.04011 | 24 ft | 13 kts | 355° |
| 2026-04-23 00:52 | 38.85538 | -77.04089 | 24 ft | 14 kts | 256° |
| 2026-04-23 00:53 | 38.85510 | -77.04197 | 26 ft | 12 kts | 252° |
| 2026-04-23 00:53 | 38.85491 | -77.04279 | 24 ft | 6 kts | 253° |
| 2026-04-23 00:53 | 38.85457 | -77.04296 | 24 ft | 4 kts | 162° |
| 2026-04-23 00:53 | 38.85435 | -77.04285 | 24 ft | 2 kts | 160° |
| 2026-04-23 00:54 | 38.85428 | -77.04281 | 24 ft | 0 kts | 161° |